Time;durP1;ratioP1;P1;durP2;ratioP2;P2;SDS_P1;SDS_P2;PMS_P1;PMS_P2;Temp;Humidity;BMP_temperature;BMP_pressure;BME280_temperature;BME280_humidity;BME280_pressure;Samples;Min_cycle;Max_cycle;Signal;HPM_P1;HPM_P2
2022/04/01 00:01:58;;;;;;;;;;;1.70;99.90;;;;;;5093085;28;19908;-40
2022/04/01 00:04:24;;;;;;;;;;;1.70;99.90;;;;;;5092585;28;19959;-41
2022/04/01 00:06:49;;;;;;;;;;;1.70;99.90;;;;;;5092918;28;19912;-40
2022/04/01 00:09:15;;;;;;;;;;;1.70;99.90;;;;;;5093267;28;19970;-40
2022/04/01 00:11:40;;;;;;;;;;;1.70;99.90;;;;;;5092446;28;19935;-41
2022/04/01 00:14:06;;;;;;;;;;;1.70;99.90;;;;;;5092838;28;19908;-40
2022/04/01 00:16:31;;;;;;;;;;;1.60;99.90;;;;;;5093113;28;20263;-41
2022/04/01 00:18:57;;;;;;;;;;;1.60;99.90;;;;;;5091851;28;19908;-40
2022/04/01 00:21:24;;;;;;;;;;;1.60;99.90;;;;;;5092815;28;20028;-41
2022/04/01 00:23:49;;;;;;;;;;;1.60;99.90;;;;;;5092152;28;19979;-40
2022/04/01 00:26:15;;;;;;;;;;;1.60;99.90;;;;;;5092083;28;20346;-41
2022/04/01 00:28:40;;;;;;;;;;;1.60;99.90;;;;;;5092840;28;19908;-41
2022/04/01 00:31:06;;;;;;;;;;;1.60;99.90;;;;;;5092515;28;19915;-40
2022/04/01 00:33:31;;;;;;;;;;;1.60;99.90;;;;;;5091244;28;19920;-40
2022/04/01 00:35:57;;;;;;;;;;;1.60;99.90;;;;;;5092239;28;19912;-40
2022/04/01 00:38:23;;;;;;;;;;;1.60;99.90;;;;;;5092821;28;19915;-41
2022/04/01 00:40:51;;;;;;;;;;;1.60;99.90;;;;;;5091636;28;19966;-42
2022/04/01 00:43:16;;;;;;;;;;;1.60;99.90;;;;;;5092501;28;19914;-40
2022/04/01 00:45:41;;;;;;;;;;;1.60;99.90;;;;;;5092049;28;19916;-41
2022/04/01 00:48:07;;;;;;;;;;;1.60;99.90;;;;;;5091710;28;19909;-41
2022/04/01 00:50:33;;;;;;;;;;;1.60;99.90;;;;;;5092676;28;19994;-41
2022/04/01 00:52:59;;;;;;;;;;;1.60;99.90;;;;;;5091745;28;19916;-41
2022/04/01 00:55:27;;;;;;;;;;;1.60;99.90;;;;;;5090310;28;19912;-40
2022/04/01 00:57:52;;;;;;;;;;;1.60;99.90;;;;;;5091788;28;19912;-40
2022/04/01 01:00:19;;;;;;;;;;;1.60;99.90;;;;;;5091713;28;20397;-41
2022/04/01 01:02:45;;;;;;;;;;;1.60;99.90;;;;;;5092207;28;20283;-41
2022/04/01 01:05:10;;;;;;;;;;;1.60;99.90;;;;;;5091992;28;20367;-40
2022/04/01 01:07:39;;;;;;;;;;;1.60;99.90;;;;;;5091564;28;19968;-40
2022/04/01 01:10:05;;;;;;;;;;;1.70;99.90;;;;;;5091876;28;19908;-41
2022/04/01 01:12:31;;;;;;;;;;;1.70;99.90;;;;;;5092546;28;19909;-41
2022/04/01 01:15:06;;;;;;;;;;;1.70;99.90;;;;;;5091072;28;19909;-40
2022/04/01 01:17:31;;;;;;;;;;;1.70;99.90;;;;;;5092400;28;19920;-41
2022/04/01 01:19:57;;;;;;;;;;;1.70;99.90;;;;;;5091801;28;20028;-41
2022/04/01 01:22:23;;;;;;;;;;;1.70;99.90;;;;;;5091532;28;19908;-41
2022/04/01 01:24:49;;;;;;;;;;;1.70;99.90;;;;;;5090801;28;19916;-40
2022/04/01 01:27:15;;;;;;;;;;;1.70;99.90;;;;;;5092074;28;20391;-41
2022/04/01 01:29:42;;;;;;;;;;;1.80;99.90;;;;;;5091459;28;19931;-40
2022/04/01 01:32:10;;;;;;;;;;;1.70;99.90;;;;;;5091631;28;19908;-40
2022/04/01 01:34:35;;;;;;;;;;;1.80;99.90;;;;;;5095480;28;19924;-42
2022/04/01 01:37:02;;;;;;;;;;;1.80;99.90;;;;;;5095189;28;19912;-41
2022/04/01 01:39:27;;;;;;;;;;;1.80;99.90;;;;;;5096131;28;19953;-41
2022/04/01 01:41:53;;;;;;;;;;;1.80;99.90;;;;;;5095782;28;19908;-40
2022/04/01 01:44:19;;;;;;;;;;;1.80;99.90;;;;;;5094861;28;19916;-40
2022/04/01 01:46:45;;;;;;;;;;;1.80;99.90;;;;;;5095814;28;19919;-41
2022/04/01 01:49:11;;;;;;;;;;;1.80;99.90;;;;;;5095906;28;19908;-41
2022/04/01 01:57:24;;;;;;;;;;;1.80;99.90;;;;;;5052359;28;20058;-41
2022/04/01 01:59:50;;;;;;;;;;;1.80;99.90;;;;;;5052819;28;20376;-41
2022/04/01 02:02:17;;;;;;;;;;;1.80;99.90;;;;;;5072763;28;19952;-41
2022/04/01 02:04:43;;;;;;;;;;;1.80;99.90;;;;;;5093740;28;20022;-41
2022/04/01 02:07:10;;;;;;;;;;;1.80;99.90;;;;;;5095569;28;19916;-41
2022/04/01 02:09:36;;;;;;;;;;;1.80;99.90;;;;;;5095527;28;20003;-41
2022/04/01 02:12:01;;;;;;;;;;;1.80;99.90;;;;;;5094350;28;19955;-41
2022/04/01 02:14:27;;;;;;;;;;;1.90;99.90;;;;;;5095582;28;19908;-41
2022/04/01 02:16:53;;;;;;;;;;;1.80;99.90;;;;;;5076984;28;20350;-41
2022/04/01 02:19:21;;;;;;;;;;;1.90;99.90;;;;;;5094527;28;19999;-42
2022/04/01 02:21:51;;;;;;;;;;;1.90;99.90;;;;;;5094784;28;20323;-41
2022/04/01 02:24:17;;;;;;;;;;;1.90;99.90;;;;;;5094746;28;19908;-41
2022/04/01 02:26:43;;;;;;;;;;;1.90;99.90;;;;;;5094196;28;19908;-40
2022/04/01 02:29:10;;;;;;;;;;;1.90;99.90;;;;;;5095169;28;20274;-41
2022/04/01 02:31:35;;;;;;;;;;;1.90;99.90;;;;;;5094986;28;19916;-41
2022/04/01 02:34:01;;;;;;;;;;;1.90;99.90;;;;;;5093676;28;20234;-40
2022/04/01 02:36:27;;;;;;;;;;;1.80;99.90;;;;;;5095369;28;19915;-40
2022/04/01 02:38:53;;;;;;;;;;;1.80;99.90;;;;;;5093700;28;19908;-40
2022/04/01 02:41:19;;;;;;;;;;;1.80;99.90;;;;;;5094887;28;19908;-41
2022/04/01 02:43:45;;;;;;;;;;;1.80;99.90;;;;;;5092012;28;20294;-40
2022/04/01 02:46:10;;;;;;;;;;;1.80;99.90;;;;;;5094017;28;20146;-41
2022/04/01 02:48:36;;;;;;;;;;;1.70;99.90;;;;;;5094786;28;19914;-40
2022/04/01 02:51:01;;;;;;;;;;;1.80;99.90;;;;;;5094487;28;20002;-40
2022/04/01 02:53:27;;;;;;;;;;;1.70;99.90;;;;;;5093976;28;20366;-41
2022/04/01 02:55:52;;;;;;;;;;;1.70;99.90;;;;;;5094287;28;19908;-41
2022/04/01 02:58:18;;;;;;;;;;;1.70;99.90;;;;;;5094685;28;19974;-41
2022/04/01 03:00:44;;;;;;;;;;;1.70;99.90;;;;;;5093524;28;20270;-41
2022/04/01 03:03:09;;;;;;;;;;;1.70;99.90;;;;;;5094248;28;19912;-40
2022/04/01 03:05:38;;;;;;;;;;;1.70;99.90;;;;;;5094456;28;20022;-41
2022/04/01 03:08:05;;;;;;;;;;;1.70;99.90;;;;;;5093588;28;19908;-40
2022/04/01 03:10:33;;;;;;;;;;;1.70;99.90;;;;;;5094387;28;20275;-41
2022/04/01 03:13:00;;;;;;;;;;;1.80;99.90;;;;;;5094160;28;19908;-41
2022/04/01 03:15:28;;;;;;;;;;;1.80;99.90;;;;;;5093552;28;19967;-41
2022/04/01 03:17:54;;;;;;;;;;;1.70;99.90;;;;;;5094109;28;19908;-41
2022/04/01 03:20:20;;;;;;;;;;;1.80;99.90;;;;;;5094362;28;20008;-42
2022/04/01 03:22:45;;;;;;;;;;;1.80;99.90;;;;;;5093193;28;19957;-41
2022/04/01 03:25:13;;;;;;;;;;;1.80;99.90;;;;;;5093969;28;19986;-41
2022/04/01 03:27:39;;;;;;;;;;;1.90;99.90;;;;;;5094041;28;19908;-41
2022/04/01 03:30:09;;;;;;;;;;;1.80;99.90;;;;;;5092903;28;19908;-41
2022/04/01 03:32:35;;;;;;;;;;;1.90;99.90;;;;;;5093722;28;19919;-41
2022/04/01 03:35:01;;;;;;;;;;;1.90;99.90;;;;;;5092440;28;20321;-41
2022/04/01 03:37:27;;;;;;;;;;;1.90;99.90;;;;;;5094008;28;19908;-41
2022/04/01 03:39:53;;;;;;;;;;;1.90;99.90;;;;;;5093069;28;20432;-41
2022/04/01 03:42:20;;;;;;;;;;;1.90;99.90;;;;;;5092976;28;19916;-41
2022/04/01 03:44:46;;;;;;;;;;;1.90;99.90;;;;;;5093401;28;19916;-41
2022/04/01 03:47:17;;;;;;;;;;;1.90;99.90;;;;;;5093655;28;20329;-41
2022/04/01 03:49:49;;;;;;;;;;;1.90;99.90;;;;;;5092599;28;19908;-41
2022/04/01 03:52:16;;;;;;;;;;;2.00;99.90;;;;;;5093667;28;19908;-41
2022/04/01 03:54:43;;;;;;;;;;;2.00;99.90;;;;;;5093212;28;19919;-43
2022/04/01 03:57:10;;;;;;;;;;;2.00;99.90;;;;;;5092049;28;20320;-40
2022/04/01 03:59:41;;;;;;;;;;;2.00;99.90;;;;;;5093495;28;19912;-41
2022/04/01 04:02:13;;;;;;;;;;;2.00;99.90;;;;;;5093433;28;20010;-40
2022/04/01 04:04:39;;;;;;;;;;;2.10;99.90;;;;;;5092419;28;20362;-41
2022/04/01 04:07:08;;;;;;;;;;;2.10;99.90;;;;;;5092988;28;19912;-40
2022/04/01 04:09:35;;;;;;;;;;;2.10;99.90;;;;;;5093044;28;19915;-42
2022/04/01 04:12:01;;;;;;;;;;;2.10;99.90;;;;;;5091895;28;19943;-41
2022/04/01 04:14:28;;;;;;;;;;;2.20;99.90;;;;;;5093238;28;20177;-42
2022/04/01 04:16:55;;;;;;;;;;;2.20;99.90;;;;;;5092674;28;19908;-42
2022/04/01 04:19:23;;;;;;;;;;;2.20;99.90;;;;;;5092296;28;19920;-41
2022/04/01 04:21:54;;;;;;;;;;;2.20;99.90;;;;;;5092601;28;19908;-41
2022/04/01 04:24:24;;;;;;;;;;;2.20;99.90;;;;;;5092236;28;19916;-41
2022/04/01 04:26:51;;;;;;;;;;;2.20;99.90;;;;;;5092695;28;19912;-41
2022/04/01 04:29:17;;;;;;;;;;;2.20;99.90;;;;;;5092812;28;19915;-41
2022/04/01 04:31:43;;;;;;;;;;;2.20;99.90;;;;;;5091766;28;19995;-41
2022/04/01 04:34:09;;;;;;;;;;;2.20;99.90;;;;;;5092503;28;19920;-41
2022/04/01 04:36:36;;;;;;;;;;;2.20;99.90;;;;;;5092729;28;19908;-41
2022/04/01 04:39:22;;;;;;;;;;;2.20;99.90;;;;;;5091585;28;19923;-41
2022/04/01 04:41:49;;;;;;;;;;;2.20;99.90;;;;;;5080677;28;19912;-42
2022/04/01 04:44:14;;;;;;;;;;;2.20;99.90;;;;;;5092567;28;20355;-40
2022/04/01 04:46:41;;;;;;;;;;;2.20;99.90;;;;;;5091648;28;19923;-41
2022/04/01 04:49:08;;;;;;;;;;;2.20;99.90;;;;;;5092122;28;19962;-41
2022/04/01 04:51:34;;;;;;;;;;;2.20;99.90;;;;;;5092506;28;19934;-41
2022/04/01 04:54:00;;;;;;;;;;;2.30;99.90;;;;;;5091392;28;19921;-41
2022/04/01 04:56:26;;;;;;;;;;;2.20;99.90;;;;;;5092412;28;19912;-41
2022/04/01 04:58:53;;;;;;;;;;;2.30;99.90;;;;;;5092053;28;19908;-41
2022/04/01 05:01:48;;;;;;;;;;;2.30;99.90;;;;;;5091772;28;20010;-41
2022/04/01 05:04:40;;;;;;;;;;;2.20;99.90;;;;;;5074811;28;19908;-41
2022/04/01 05:07:26;;;;;;;;;;;2.30;99.90;;;;;;5091382;28;19920;-41
2022/04/01 05:10:03;;;;;;;;;;;2.30;99.90;;;;;;5091575;28;19912;-41
2022/04/01 05:12:32;;;;;;;;;;;2.20;99.90;;;;;;5092402;28;19914;-41
2022/04/01 05:15:00;;;;;;;;;;;2.30;99.90;;;;;;5091235;28;19908;-41
2022/04/01 05:17:35;;;;;;;;;;;2.30;99.90;;;;;;5092351;28;20003;-41
2022/04/01 05:20:01;;;;;;;;;;;2.30;99.90;;;;;;5091838;28;19908;-40
2022/04/01 05:22:36;;;;;;;;;;;2.30;99.90;;;;;;5091306;28;19912;-42
2022/04/01 05:25:03;;;;;;;;;;;2.30;99.90;;;;;;5091834;28;20006;-41
2022/04/01 05:27:30;;;;;;;;;;;2.30;99.90;;;;;;5091579;28;19969;-41
2022/04/01 05:29:59;;;;;;;;;;;2.30;99.90;;;;;;5092102;28;20371;-41
2022/04/01 05:32:28;;;;;;;;;;;2.30;99.90;;;;;;5092162;28;19912;-41
2022/04/01 05:34:55;;;;;;;;;;;2.30;99.90;;;;;;5090611;28;19973;-41
2022/04/01 05:37:25;;;;;;;;;;;2.30;99.90;;;;;;5091967;28;19909;-40
2022/04/01 05:39:51;;;;;;;;;;;2.30;99.90;;;;;;5091422;28;19962;-41
2022/04/01 05:42:18;;;;;;;;;;;2.40;99.90;;;;;;5091351;28;19915;-41
2022/04/01 05:44:44;;;;;;;;;;;2.40;99.90;;;;;;5091708;28;19963;-41
2022/04/01 05:47:10;;;;;;;;;;;2.40;99.90;;;;;;5091857;28;19936;-41
2022/04/01 05:49:43;;;;;;;;;;;2.40;99.90;;;;;;5090666;28;19920;-40
2022/04/01 05:52:09;;;;;;;;;;;2.40;99.90;;;;;;5091915;28;19912;-40
2022/04/01 05:54:34;;;;;;;;;;;2.50;99.90;;;;;;5091880;28;19915;-41
2022/04/01 05:57:02;;;;;;;;;;;2.50;99.90;;;;;;5090687;28;19908;-41
2022/04/01 05:59:28;;;;;;;;;;;2.50;99.90;;;;;;5091730;28;19914;-41
2022/04/01 06:01:59;;;;;;;;;;;2.50;99.90;;;;;;5091467;28;20011;-40
2022/04/01 06:04:43;;;;;;;;;;;2.60;99.90;;;;;;5090342;28;19916;-40
2022/04/01 06:07:09;;;;;;;;;;;2.60;99.90;;;;;;5091272;28;19924;-41
2022/04/01 06:09:53;;;;;;;;;;;2.60;99.90;;;;;;5091447;28;19959;-40
2022/04/01 06:12:19;;;;;;;;;;;2.60;99.90;;;;;;5091719;28;19918;-41
2022/04/01 06:14:50;;;;;;;;;;;2.60;99.90;;;;;;5091026;28;19916;-40
2022/04/01 06:17:23;;;;;;;;;;;2.60;99.90;;;;;;5070836;28;20003;-40
2022/04/01 06:19:50;;;;;;;;;;;2.60;99.90;;;;;;5089553;28;19943;-41
2022/04/01 06:22:20;;;;;;;;;;;2.70;99.90;;;;;;5115822;28;19919;-40
2022/04/01 06:25:17;;;;;;;;;;;2.70;99.90;;;;;;5114473;28;20016;-41
2022/04/01 06:27:45;;;;;;;;;;;2.70;99.90;;;;;;5099223;28;19957;-41
2022/04/01 06:30:12;;;;;;;;;;;2.80;99.90;;;;;;5095154;28;20380;-41
2022/04/01 06:32:43;;;;;;;;;;;2.80;99.90;;;;;;5094292;28;19909;-41
2022/04/01 06:35:18;;;;;;;;;;;2.90;99.90;;;;;;5094495;28;19920;-40
2022/04/01 06:37:53;;;;;;;;;;;2.90;99.90;;;;;;5094711;28;20379;-41
2022/04/01 06:40:22;;;;;;;;;;;2.90;99.90;;;;;;5094465;28;21393;-41
2022/04/01 06:42:49;;;;;;;;;;;2.90;99.90;;;;;;5094738;28;19919;-42
2022/04/01 06:45:15;;;;;;;;;;;3.00;99.90;;;;;;5094115;28;19923;-40
2022/04/01 06:47:40;;;;;;;;;;;3.00;99.90;;;;;;5094806;28;19908;-41
2022/04/01 06:50:06;;;;;;;;;;;3.00;99.90;;;;;;5094405;28;20378;-41
2022/04/01 06:52:32;;;;;;;;;;;3.00;99.90;;;;;;5093568;28;19957;-41
2022/04/01 06:54:57;;;;;;;;;;;3.00;99.90;;;;;;5108833;28;19908;-40
2022/04/01 06:57:23;;;;;;;;;;;3.10;99.90;;;;;;5114178;28;19945;-41
2022/04/01 06:59:49;;;;;;;;;;;3.10;99.90;;;;;;5093853;28;19909;-40
2022/04/01 07:02:15;;;;;;;;;;;3.10;99.90;;;;;;5094416;28;19920;-41
2022/04/01 07:04:40;;;;;;;;;;;3.20;99.90;;;;;;5094607;28;19908;-41
2022/04/01 07:07:06;;;;;;;;;;;3.20;99.90;;;;;;5093400;28;19923;-41
2022/04/01 07:09:31;;;;;;;;;;;3.20;99.90;;;;;;5094847;28;19908;-41
2022/04/01 07:11:59;;;;;;;;;;;3.30;99.90;;;;;;5114448;28;19915;-41
2022/04/01 07:14:27;;;;;;;;;;;3.30;99.90;;;;;;5114045;28;19990;-41
2022/04/01 07:16:53;;;;;;;;;;;3.30;99.90;;;;;;5114577;28;19908;-41
2022/04/01 07:19:19;;;;;;;;;;;3.30;99.90;;;;;;5114779;28;19912;-41
2022/04/01 07:21:44;;;;;;;;;;;3.40;99.90;;;;;;5113511;28;19907;-41
2022/04/01 07:24:10;;;;;;;;;;;3.40;99.90;;;;;;5097651;28;19912;-40
2022/04/01 07:26:35;;;;;;;;;;;3.40;99.90;;;;;;5108466;28;19916;-41
2022/04/01 07:29:01;;;;;;;;;;;3.40;99.90;;;;;;5113309;28;20286;-41
2022/04/01 07:34:11;;;;;;;;;;;3.40;99.90;;;;;;5096528;28;19946;-41
2022/04/01 07:36:37;;;;;;;;;;;3.40;99.90;;;;;;5114322;28;19912;-41
2022/04/01 07:39:02;;;;;;;;;;;3.40;99.90;;;;;;5103318;28;19915;-41
2022/04/01 07:41:29;;;;;;;;;;;3.40;99.90;;;;;;5093032;28;19909;-40
2022/04/01 07:43:55;;;;;;;;;;;3.50;99.90;;;;;;5093433;28;19951;-40
2022/04/01 07:46:20;;;;;;;;;;;3.50;99.90;;;;;;5093683;28;19967;-40
2022/04/01 07:48:45;;;;;;;;;;;3.50;99.90;;;;;;5092518;28;20001;-40
2022/04/01 07:51:11;;;;;;;;;;;3.50;99.90;;;;;;5103568;28;19919;-40
2022/04/01 07:53:36;;;;;;;;;;;3.60;99.90;;;;;;5113745;28;20290;-40
2022/04/01 07:56:02;;;;;;;;;;;3.60;99.90;;;;;;5112940;28;20346;-42
2022/04/01 07:58:27;;;;;;;;;;;3.70;99.90;;;;;;5113586;28;19934;-40
2022/04/01 08:00:53;;;;;;;;;;;3.70;99.90;;;;;;5113419;28;19931;-41
2022/04/01 08:03:18;;;;;;;;;;;3.70;99.90;;;;;;5112744;28;19918;-40
2022/04/01 08:05:44;;;;;;;;;;;3.70;99.90;;;;;;5113239;28;19920;-40
2022/04/01 08:08:09;;;;;;;;;;;3.80;99.90;;;;;;5113336;28;19908;-41
2022/04/01 08:10:35;;;;;;;;;;;3.80;99.90;;;;;;5112896;28;20359;-40
2022/04/01 08:13:00;;;;;;;;;;;3.80;99.90;;;;;;5113080;28;20056;-41
2022/04/01 08:15:25;;;;;;;;;;;3.90;99.90;;;;;;5113347;28;19911;-40
2022/04/01 08:17:55;;;;;;;;;;;3.90;99.90;;;;;;5112294;28;19953;-41
2022/04/01 08:20:21;;;;;;;;;;;3.90;99.90;;;;;;5113422;28;19907;-40
2022/04/01 08:22:47;;;;;;;;;;;3.90;99.90;;;;;;5112992;28;20259;-40
2022/04/01 08:25:12;;;;;;;;;;;4.00;99.90;;;;;;5112320;28;19978;-41
2022/04/01 08:27:38;;;;;;;;;;;4.00;99.90;;;;;;5103575;28;19961;-42
2022/04/01 08:30:03;;;;;;;;;;;3.90;99.90;;;;;;5092079;28;19908;-41
2022/04/01 08:32:30;;;;;;;;;;;4.00;99.90;;;;;;5092082;28;19959;-41
2022/04/01 08:34:56;;;;;;;;;;;4.00;99.90;;;;;;5092014;28;19926;-40
2022/04/01 08:37:22;;;;;;;;;;;4.00;99.90;;;;;;5098270;28;20320;-41
2022/04/01 08:39:47;;;;;;;;;;;4.00;99.90;;;;;;5112680;28;19915;-40
2022/04/01 08:42:13;;;;;;;;;;;4.00;99.90;;;;;;5099578;28;19961;-41
2022/04/01 08:44:41;;;;;;;;;;;4.00;99.90;;;;;;5091715;28;19915;-40
2022/04/01 08:47:09;;;;;;;;;;;4.00;99.90;;;;;;5092284;28;20366;-41
2022/04/01 08:49:35;;;;;;;;;;;4.10;99.90;;;;;;5092437;28;20391;-41
2022/04/01 08:52:02;;;;;;;;;;;4.10;99.90;;;;;;5091659;28;19919;-41
2022/04/01 08:54:30;;;;;;;;;;;4.10;99.90;;;;;;5105586;28;19954;-41
2022/04/01 08:56:55;;;;;;;;;;;4.20;99.90;;;;;;5092537;28;20358;-41
2022/04/01 08:59:26;;;;;;;;;;;4.20;99.90;;;;;;5073557;28;19916;-41
2022/04/01 09:01:52;;;;;;;;;;;4.10;99.90;;;;;;5091985;28;19915;-40
2022/04/01 09:04:21;;;;;;;;;;;4.10;99.90;;;;;;5091697;28;19908;-40
2022/04/01 09:06:47;;;;;;;;;;;4.20;99.90;;;;;;5085971;28;19988;-40
2022/04/01 09:09:29;;;;;;;;;;;4.20;99.90;;;;;;5090050;28;20026;-40
2022/04/01 09:12:08;;;;;;;;;;;4.20;99.90;;;;;;5090137;28;20435;-40
2022/04/01 09:14:34;;;;;;;;;;;4.20;99.90;;;;;;5090533;28;19916;-40
2022/04/01 09:17:00;;;;;;;;;;;4.20;99.90;;;;;;5090875;28;19912;-40
2022/04/01 09:19:31;;;;;;;;;;;4.20;99.90;;;;;;5091595;28;19909;-40
2022/04/01 09:21:57;;;;;;;;;;;4.20;99.90;;;;;;5090271;28;19978;-41
2022/04/01 09:24:22;;;;;;;;;;;4.20;99.90;;;;;;5091201;28;19916;-40
2022/04/01 09:26:52;;;;;;;;;;;4.10;99.90;;;;;;5089829;28;19916;-42
2022/04/01 09:29:19;;;;;;;;;;;4.10;99.90;;;;;;5091323;28;20366;-41
2022/04/01 09:31:49;;;;;;;;;;;4.10;99.90;;;;;;5090921;28;19960;-41
2022/04/01 09:34:15;;;;;;;;;;;4.10;99.90;;;;;;5089635;28;20367;-40
2022/04/01 09:36:41;;;;;;;;;;;4.20;99.90;;;;;;5091262;28;19998;-42
2022/04/01 09:39:08;;;;;;;;;;;4.20;99.90;;;;;;5090965;28;19943;-41
2022/04/01 09:41:38;;;;;;;;;;;4.20;99.90;;;;;;5090633;28;19908;-41
2022/04/01 09:44:06;;;;;;;;;;;4.20;99.90;;;;;;5090483;28;20375;-41
2022/04/01 09:46:31;;;;;;;;;;;4.20;99.90;;;;;;5090844;28;19916;-41
2022/04/01 09:48:58;;;;;;;;;;;4.20;99.90;;;;;;5090833;28;19915;-41
2022/04/01 09:51:28;;;;;;;;;;;4.30;99.90;;;;;;5091585;28;20321;-40
2022/04/01 09:53:54;;;;;;;;;;;4.40;99.90;;;;;;5092078;28;20375;-40
2022/04/01 09:56:34;;;;;;;;;;;4.40;99.90;;;;;;5094236;28;19912;-41
2022/04/01 09:59:00;;;;;;;;;;;4.40;99.90;;;;;;5106418;28;19915;-40
2022/04/01 10:01:25;;;;;;;;;;;4.40;99.90;;;;;;5116111;28;19908;-40
2022/04/01 10:03:51;;;;;;;;;;;4.50;99.90;;;;;;5097193;28;19915;-42
2022/04/01 10:06:17;;;;;;;;;;;4.50;99.90;;;;;;5095755;28;19916;-40
2022/04/01 10:08:43;;;;;;;;;;;4.50;99.90;;;;;;5095420;28;20332;-40
2022/04/01 10:11:09;;;;;;;;;;;4.50;99.90;;;;;;5095053;28;19908;-40
2022/04/01 10:13:35;;;;;;;;;;;4.60;99.90;;;;;;5095604;28;19915;-41
2022/04/01 10:16:02;;;;;;;;;;;4.60;99.90;;;;;;5111984;28;19998;-41
2022/04/01 10:18:27;;;;;;;;;;;4.60;99.90;;;;;;5115784;28;19923;-41
2022/04/01 10:20:54;;;;;;;;;;;4.60;99.90;;;;;;5115477;28;19907;-40
2022/04/01 10:23:21;;;;;;;;;;;4.60;99.90;;;;;;5114957;28;19931;-40
2022/04/01 10:25:46;;;;;;;;;;;4.60;99.90;;;;;;5113704;28;20001;-40
2022/04/01 10:28:12;;;;;;;;;;;4.70;99.90;;;;;;5095235;28;20379;-40
2022/04/01 10:30:40;;;;;;;;;;;4.60;99.90;;;;;;5094476;28;19908;-41
2022/04/01 10:33:07;;;;;;;;;;;4.60;99.90;;;;;;5094786;28;19915;-40
2022/04/01 10:35:38;;;;;;;;;;;4.60;99.90;;;;;;5094956;28;19920;-41
2022/04/01 10:38:06;;;;;;;;;;;4.70;99.90;;;;;;5093781;28;19915;-40
2022/04/01 10:40:42;;;;;;;;;;;4.60;99.90;;;;;;5094533;28;20294;-41
2022/04/01 10:43:09;;;;;;;;;;;4.60;99.90;;;;;;5074514;28;19956;-40
2022/04/01 10:45:37;;;;;;;;;;;4.50;99.90;;;;;;5087803;28;19915;-40
2022/04/01 10:54:10;;;;;;;;;;;4.50;99.90;;;;;;5092860;28;19918;-40
2022/04/01 10:56:36;;;;;;;;;;;4.50;99.90;;;;;;5093144;28;19999;-40
2022/04/01 10:59:07;;;;;;;;;;;4.50;99.90;;;;;;5092809;28;19956;-40
2022/04/01 11:01:34;;;;;;;;;;;4.70;99.90;;;;;;5093374;28;19908;-40
2022/04/01 11:04:01;;;;;;;;;;;4.80;99.90;;;;;;5094234;28;19908;-41
2022/04/01 11:06:27;;;;;;;;;;;4.80;99.90;;;;;;5093420;28;20362;-40
2022/04/01 11:08:56;;;;;;;;;;;4.90;99.90;;;;;;5093016;28;20249;-41
2022/04/01 11:11:22;;;;;;;;;;;4.90;99.90;;;;;;5108546;28;19908;-40
2022/04/01 11:14:03;;;;;;;;;;;4.80;99.90;;;;;;5113774;28;19912;-43
2022/04/01 11:16:44;;;;;;;;;;;4.80;99.90;;;;;;5114695;28;19952;-41
2022/04/01 11:19:13;;;;;;;;;;;4.80;99.90;;;;;;5113929;28;19915;-40
2022/04/01 11:21:39;;;;;;;;;;;4.90;99.90;;;;;;5114719;28;19998;-41
2022/04/01 11:24:31;;;;;;;;;;;5.00;99.90;;;;;;5114244;28;19915;-42
2022/04/01 11:27:26;;;;;;;;;;;5.00;99.90;;;;;;5109224;28;20451;-40
2022/04/01 11:30:03;;;;;;;;;;;4.90;99.90;;;;;;5096169;28;19915;-40
2022/04/01 11:32:29;;;;;;;;;;;4.80;99.90;;;;;;5112261;28;19907;-40
2022/04/01 11:34:55;;;;;;;;;;;4.80;99.90;;;;;;5096048;28;19949;-40
2022/04/01 11:37:21;;;;;;;;;;;4.80;99.90;;;;;;5096741;28;19957;-41
2022/04/01 11:39:47;;;;;;;;;;;4.80;99.90;;;;;;5114201;28;19911;-41
2022/04/01 11:42:12;;;;;;;;;;;4.80;99.90;;;;;;5104976;28;20355;-41
2022/04/01 11:44:38;;;;;;;;;;;4.90;99.90;;;;;;5093723;28;19915;-41
2022/04/01 11:47:04;;;;;;;;;;;5.00;99.90;;;;;;5093287;28;19917;-40
2022/04/01 11:49:29;;;;;;;;;;;5.00;99.90;;;;;;5092679;28;20443;-41
2022/04/01 11:51:55;;;;;;;;;;;5.10;99.90;;;;;;5093198;28;19947;-41
2022/04/01 11:54:21;;;;;;;;;;;5.20;99.90;;;;;;5092329;28;19919;-41
2022/04/01 11:56:50;;;;;;;;;;;5.10;99.90;;;;;;5093478;28;19909;-40
2022/04/01 11:59:15;;;;;;;;;;;5.20;99.90;;;;;;5093533;28;19995;-41
2022/04/01 12:01:56;;;;;;;;;;;5.20;99.90;;;;;;5092690;28;20004;-41
2022/04/01 12:04:26;;;;;;;;;;;5.20;99.90;;;;;;5093500;28;19912;-41
2022/04/01 12:09:35;;;;;;;;;;;5.30;99.90;;;;;;5092790;28;19946;-40
2022/04/01 12:12:02;;;;;;;;;;;5.20;99.90;;;;;;5092887;28;19916;-42
2022/04/01 12:14:28;;;;;;;;;;;5.30;99.90;;;;;;5093117;28;20349;-40
2022/04/01 12:16:54;;;;;;;;;;;5.30;99.90;;;;;;5091381;28;19938;-41
2022/04/01 12:19:22;;;;;;;;;;;5.40;99.90;;;;;;5092653;28;19920;-40
2022/04/01 12:21:54;;;;;;;;;;;5.50;99.90;;;;;;5092482;28;20385;-41
2022/04/01 12:24:19;;;;;;;;;;;5.60;99.90;;;;;;5092283;28;20366;-41
2022/04/01 12:26:46;;;;;;;;;;;5.60;99.90;;;;;;5092583;28;19916;-41
2022/04/01 12:29:22;;;;;;;;;;;5.60;99.90;;;;;;5088376;28;20336;-40
2022/04/01 12:31:55;;;;;;;;;;;5.60;99.90;;;;;;5090139;28;20285;-41
2022/04/01 12:34:21;;;;;;;;;;;5.70;99.90;;;;;;5090244;28;20370;-41
2022/04/01 12:36:54;;;;;;;;;;;5.70;99.90;;;;;;5089907;28;19938;-40
2022/04/01 12:39:19;;;;;;;;;;;5.90;99.90;;;;;;5092262;28;19990;-40
2022/04/01 12:41:52;;;;;;;;;;;5.90;99.90;;;;;;5093322;28;20026;-41
2022/04/01 12:44:21;;;;;;;;;;;5.80;99.90;;;;;;5112213;28;19914;-40
2022/04/01 12:46:47;;;;;;;;;;;5.70;99.90;;;;;;5102727;28;19920;-42
2022/04/01 12:49:14;;;;;;;;;;;5.70;99.90;;;;;;5092425;28;19951;-41
2022/04/01 12:51:47;;;;;;;;;;;5.70;99.90;;;;;;5091966;28;19985;-42
2022/04/01 12:54:22;;;;;;;;;;;5.60;99.90;;;;;;5092426;28;19967;-41
2022/04/01 12:56:51;;;;;;;;;;;5.50;99.90;;;;;;5092179;28;20454;-41
2022/04/01 12:59:17;;;;;;;;;;;5.50;99.90;;;;;;5091200;28;19912;-41
2022/04/01 13:01:44;;;;;;;;;;;5.60;99.90;;;;;;5091577;28;19916;-40
2022/04/01 13:04:16;;;;;;;;;;;5.50;99.90;;;;;;5091830;28;19915;-40
2022/04/01 13:06:41;;;;;;;;;;;5.60;99.90;;;;;;5091008;28;19924;-40
2022/04/01 13:09:08;;;;;;;;;;;5.70;99.90;;;;;;5092074;28;19916;-41
2022/04/01 13:11:35;;;;;;;;;;;5.80;99.90;;;;;;5090820;28;20015;-41
2022/04/01 13:14:01;;;;;;;;;;;5.70;99.90;;;;;;5090968;28;20154;-40
2022/04/01 13:16:34;;;;;;;;;;;5.80;99.90;;;;;;5092342;28;20095;-40
2022/04/01 13:19:16;;;;;;;;;;;5.80;99.90;;;;;;5091031;28;20331;-41
2022/04/01 13:21:42;;;;;;;;;;;5.80;99.90;;;;;;5090443;28;20294;-40
2022/04/01 13:24:07;;;;;;;;;;;5.70;99.90;;;;;;5090831;28;19912;-40
2022/04/01 13:26:32;;;;;;;;;;;5.90;99.90;;;;;;5090948;28;20367;-42
2022/04/01 13:28:58;;;;;;;;;;;5.90;99.90;;;;;;5092612;28;20290;-42
2022/04/01 13:31:24;;;;;;;;;;;5.90;99.90;;;;;;5095567;28;20279;-41
2022/04/01 13:33:49;;;;;;;;;;;5.90;99.90;;;;;;5094783;28;20393;-41
2022/04/01 13:36:14;;;;;;;;;;;5.90;99.90;;;;;;5094577;28;19920;-41
2022/04/01 13:38:40;;;;;;;;;;;5.80;99.90;;;;;;5094517;28;19915;-40
2022/04/01 13:41:05;;;;;;;;;;;5.90;99.90;;;;;;5093193;28;19908;-41
2022/04/01 13:43:31;;;;;;;;;;;5.80;99.90;;;;;;5094459;28;19999;-41
2022/04/01 13:45:57;;;;;;;;;;;5.80;99.90;;;;;;5094859;28;20425;-41
2022/04/01 13:48:24;;;;;;;;;;;5.70;99.90;;;;;;5093886;28;19908;-40
2022/04/01 13:50:49;;;;;;;;;;;5.70;99.90;;;;;;5094095;28;19917;-41
2022/04/01 13:53:15;;;;;;;;;;;5.60;99.90;;;;;;5096161;28;19908;-40
2022/04/01 13:55:41;;;;;;;;;;;5.70;99.90;;;;;;5095345;28;19908;-40
2022/04/01 13:58:07;;;;;;;;;;;5.70;99.90;;;;;;5095671;28;20397;-41
2022/04/01 14:00:33;;;;;;;;;;;5.70;99.90;;;;;;5095713;28;19909;-41
2022/04/01 14:02:58;;;;;;;;;;;5.80;99.90;;;;;;5094555;28;19962;-40
2022/04/01 14:05:23;;;;;;;;;;;5.80;99.90;;;;;;5095854;28;19964;-41
2022/04/01 14:07:49;;;;;;;;;;;5.80;99.90;;;;;;5095188;28;20297;-41
2022/04/01 14:10:14;;;;;;;;;;;5.90;99.90;;;;;;5094991;28;20315;-40
2022/04/01 14:12:40;;;;;;;;;;;5.90;99.90;;;;;;5095630;28;19908;-41
2022/04/01 14:15:06;;;;;;;;;;;5.90;99.90;;;;;;5094395;28;20279;-41
2022/04/01 14:17:33;;;;;;;;;;;6.00;98.60;;;;;;5095367;28;19912;-43
2022/04/01 14:20:00;;;;;;;;;;;6.00;99.90;;;;;;5094874;28;19908;-41
2022/04/01 14:22:26;;;;;;;;;;;6.00;99.90;;;;;;5094191;28;19912;-40
2022/04/01 14:24:51;;;;;;;;;;;6.10;99.90;;;;;;5102258;28;19914;-41
2022/04/01 14:27:17;;;;;;;;;;;6.10;99.90;;;;;;5115715;28;19915;-41
2022/04/01 14:32:27;;;;;;;;;;;6.30;99.90;;;;;;5115840;28;20093;-40
2022/04/01 14:34:53;;;;;;;;;;;6.30;99.90;;;;;;5114975;28;19920;-41
2022/04/01 14:37:18;;;;;;;;;;;6.40;99.90;;;;;;5114587;28;20274;-40
2022/04/01 14:39:44;;;;;;;;;;;6.40;99.90;;;;;;5114811;28;19954;-41
2022/04/01 14:42:09;;;;;;;;;;;6.40;99.90;;;;;;5115524;28;20376;-42
2022/04/01 14:44:35;;;;;;;;;;;6.40;99.40;;;;;;5097604;28;19912;-42
2022/04/01 14:47:01;;;;;;;;;;;6.40;99.90;;;;;;5114687;28;19916;-41
2022/04/01 14:49:27;;;;;;;;;;;6.40;99.90;;;;;;5107086;28;19936;-40
2022/04/01 14:51:53;;;;;;;;;;;6.40;99.90;;;;;;5093590;28;19951;-41
2022/04/01 14:54:19;;;;;;;;;;;6.30;99.00;;;;;;5094573;28;19909;-40